createdAt,value
2018-04-08T00:02:23.605Z,23.67
2018-04-08T00:04:51.474Z,25.90
2018-04-08T00:07:19.446Z,24.77
2018-04-08T00:09:48.073Z,21.33
2018-04-08T00:12:16.014Z,23.43
2018-04-08T00:14:43.934Z,20.90
2018-04-08T00:17:12.665Z,22.53
2018-04-08T00:19:40.533Z,21.73
2018-04-08T00:22:08.454Z,21.93
2018-04-08T00:24:36.353Z,24.03
2018-04-08T00:27:04.333Z,21.33
2018-04-08T00:29:32.236Z,21.83
2018-04-08T00:32:00.193Z,22.47
2018-04-08T00:34:28.097Z,23.93
2018-04-08T00:36:56.093Z,23.97
2018-04-08T00:39:24.733Z,20.70
2018-04-08T00:41:52.673Z,23.73
2018-04-08T00:44:20.601Z,21.37
2018-04-08T00:46:48.534Z,21.10
2018-04-08T00:49:16.493Z,23.30
2018-04-08T00:51:44.443Z,24.73
2018-04-08T00:54:24.014Z,20.97
2018-04-08T00:56:51.994Z,25.10
2018-04-08T00:59:19.883Z,24.47
2018-04-08T01:01:47.893Z,23.23
2018-04-08T01:04:15.773Z,22.07
2018-04-08T01:06:43.733Z,23.97
2018-04-08T01:09:11.613Z,24.70
2018-04-08T01:11:39.553Z,24.73
2018-04-08T01:14:07.484Z,24.17
2018-04-08T01:16:35.433Z,22.03
2018-04-08T01:19:03.293Z,24.53
2018-04-08T01:21:31.993Z,25.90
2018-04-08T01:23:59.956Z,24.70
2018-04-08T01:26:27.933Z,28.27
2018-04-08T01:28:56.522Z,26.43
2018-04-08T01:31:24.493Z,21.93
2018-04-08T01:33:52.353Z,23.50
2018-04-08T01:36:20.928Z,24.87
2018-04-08T01:38:48.708Z,28.40
2018-04-08T01:41:16.447Z,23.27
2018-04-08T01:43:44.158Z,25.00
2018-04-08T01:46:11.970Z,26.67
2018-04-08T01:48:40.528Z,26.87
2018-04-08T01:51:08.309Z,27.40
2018-04-08T01:53:36.067Z,27.33
2018-04-08T01:56:03.768Z,29.57
2018-04-08T01:58:31.552Z,25.20
2018-04-08T02:00:59.323Z,24.23
2018-04-08T02:03:27.028Z,26.53
2018-04-08T02:05:54.748Z,28.03
2018-04-08T02:08:22.550Z,26.53
2018-04-08T02:10:50.227Z,29.13
2018-04-08T02:13:17.970Z,28.77
2018-04-08T02:15:45.716Z,30.93
2018-04-08T02:18:13.507Z,28.80
2018-04-08T02:20:41.267Z,30.50
2018-04-08T02:23:08.967Z,31.07
2018-04-08T02:25:36.708Z,28.70
2018-04-08T02:28:04.508Z,28.83
2018-04-08T02:30:32.968Z,31.33
2018-04-08T02:33:00.708Z,32.37
2018-04-08T02:35:28.418Z,29.43
2018-04-08T02:37:56.174Z,28.70
2018-04-08T02:40:23.906Z,30.67
2018-04-08T02:42:52.448Z,30.87
2018-04-08T02:45:20.173Z,28.90
2018-04-08T02:47:48.708Z,29.37
2018-04-08T02:50:17.168Z,30.33
2018-04-08T02:52:44.949Z,30.20
2018-04-08T02:55:12.673Z,33.43
2018-04-08T02:57:40.507Z,31.23
2018-04-08T03:00:08.248Z,29.53
2018-04-08T03:02:36.031Z,32.73
2018-04-08T03:05:03.728Z,33.17
2018-04-08T03:07:31.488Z,33.47
2018-04-08T03:09:59.249Z,32.80
2018-04-08T03:12:27.032Z,32.20
2018-04-08T03:14:55.530Z,31.87
2018-04-08T03:17:23.307Z,31.77
2018-04-08T03:19:51.767Z,35.27
2018-04-08T03:22:19.467Z,32.60
2018-04-08T03:24:47.208Z,33.27
2018-04-08T03:27:14.916Z,32.90
2018-04-08T03:29:42.639Z,32.80
2018-04-08T03:32:10.407Z,32.60
2018-04-08T03:34:38.148Z,33.33
2018-04-08T03:37:06.668Z,34.10
2018-04-08T03:39:34.391Z,34.57
2018-04-08T03:42:02.141Z,34.73
2018-04-08T03:44:29.827Z,37.07
2018-04-08T03:46:57.607Z,37.27
2018-04-08T03:49:25.308Z,34.30
2018-04-08T03:51:53.107Z,32.13
2018-04-08T03:54:20.870Z,36.63
2018-04-08T03:56:48.647Z,33.37
2018-04-08T03:59:16.387Z,37.93
2018-04-08T04:01:44.176Z,37.27
2018-04-08T04:04:11.988Z,41.00
2018-04-08T04:06:40.597Z,36.17
2018-04-08T04:09:09.108Z,40.27
2018-04-08T04:11:36.908Z,37.87
2018-04-08T04:14:04.756Z,41.20
2018-04-08T04:16:32.568Z,41.53
2018-04-08T04:19:12.168Z,39.60
2018-04-08T04:21:52.368Z,41.73
2018-04-08T04:24:31.948Z,38.83
2018-04-08T04:26:59.748Z,42.10
2018-04-08T04:29:27.553Z,39.23
2018-04-08T04:31:55.308Z,39.43
2018-04-08T04:34:23.086Z,39.57
2018-04-08T04:36:50.887Z,37.73
2018-04-08T04:39:18.628Z,36.47
2018-04-08T04:41:46.387Z,41.00
2018-04-08T04:44:14.971Z,42.17
2018-04-08T04:46:42.668Z,39.47
2018-04-08T04:49:10.428Z,41.80
2018-04-08T04:51:38.188Z,38.63
2018-04-08T04:54:05.986Z,41.10
2018-04-08T04:56:33.708Z,42.37
2018-04-08T04:59:01.468Z,39.90
2018-04-08T05:01:29.228Z,39.07
2018-04-08T05:03:57.068Z,41.77
2018-04-08T05:06:24.808Z,40.63
2018-04-08T05:08:52.769Z,44.83
2018-04-08T05:11:21.668Z,46.40
2018-04-08T05:13:49.690Z,40.33
2018-04-08T05:16:17.426Z,44.47
2018-04-08T05:18:45.786Z,39.57
2018-04-08T05:21:13.666Z,44.33
2018-04-08T05:23:41.666Z,40.53
2018-04-08T05:26:10.866Z,41.80
2018-04-08T05:28:38.766Z,43.63
2018-04-08T05:31:06.846Z,39.90
2018-04-08T05:33:34.947Z,41.33
2018-04-08T05:38:34.766Z,41.70
2018-04-08T05:41:02.613Z,44.50
2018-04-08T05:43:31.025Z,42.63
2018-04-08T05:45:59.426Z,41.87
2018-04-08T05:48:27.486Z,43.43
2018-04-08T05:50:55.345Z,40.83
2018-04-08T05:53:23.206Z,42.07
2018-04-08T05:55:50.925Z,41.33
2018-04-08T05:58:18.785Z,41.07
2018-04-08T06:00:47.589Z,41.30
2018-04-08T06:03:15.490Z,42.43
2018-04-08T06:05:43.488Z,41.53
2018-04-08T06:08:11.408Z,44.90
2018-04-08T06:10:39.329Z,37.30
2018-04-08T06:13:07.490Z,41.13
2018-04-08T06:15:35.308Z,39.47
2018-04-08T06:18:03.247Z,41.03
2018-04-08T06:20:31.250Z,40.93
2018-04-08T06:22:59.209Z,39.50
2018-04-08T06:25:27.026Z,39.90
2018-04-08T06:27:54.946Z,43.00
2018-04-08T06:30:22.967Z,39.50
2018-04-08T06:32:50.807Z,37.33
2018-04-08T06:35:18.707Z,37.27
2018-04-08T06:37:46.827Z,36.10
2018-04-08T06:40:14.787Z,39.43
2018-04-08T06:42:42.690Z,38.20
2018-04-08T06:45:10.687Z,37.07
2018-04-08T06:47:39.456Z,37.50
2018-04-08T06:50:07.566Z,36.80
2018-04-08T06:52:35.487Z,36.30
2018-04-08T06:55:03.268Z,34.73
2018-04-08T06:57:31.156Z,36.30
2018-04-08T06:59:59.268Z,34.03
2018-04-08T07:02:27.214Z,35.13
2018-04-08T07:04:55.105Z,35.37
2018-04-08T07:07:22.896Z,33.90
2018-04-08T07:09:50.792Z,35.13
2018-04-08T07:12:19.156Z,34.70
2018-04-08T07:14:47.111Z,32.03
2018-04-08T07:17:15.072Z,34.60
2018-04-08T07:19:43.032Z,33.70
2018-04-08T07:22:11.172Z,33.73
2018-04-08T07:24:39.163Z,36.83
2018-04-08T07:27:06.951Z,36.83
2018-04-08T07:29:34.954Z,36.00
2018-04-08T07:32:02.887Z,36.73
2018-04-08T07:34:31.011Z,38.27
2018-04-08T07:36:58.873Z,37.53
2018-04-08T07:39:27.011Z,37.23
2018-04-08T07:41:54.891Z,37.00
2018-04-08T07:44:22.931Z,36.03
2018-04-08T07:46:52.713Z,35.90
2018-04-08T07:49:20.612Z,35.50
2018-04-08T07:51:48.491Z,36.27
2018-04-08T07:54:16.213Z,35.97
2018-04-08T07:56:43.936Z,39.67
2018-04-08T07:59:11.720Z,36.57
2018-04-08T08:01:39.339Z,36.03
2018-04-08T08:04:07.158Z,37.57
2018-04-08T08:06:35.013Z,37.27
2018-04-08T08:09:03.335Z,34.77
2018-04-08T08:11:31.172Z,33.47
2018-04-08T08:13:59.755Z,33.57
2018-04-08T08:16:27.752Z,33.40
2018-04-08T08:18:56.171Z,35.33
2018-04-08T08:21:24.092Z,34.40
2018-04-08T08:23:52.293Z,34.10
2018-04-08T08:26:20.171Z,31.60
2018-04-08T08:28:48.091Z,33.73
2018-04-08T08:31:15.911Z,32.60
2018-04-08T08:33:44.132Z,34.97
2018-04-08T08:36:12.541Z,34.73
2018-04-08T08:38:40.511Z,31.80
2018-04-08T08:41:08.513Z,36.30
2018-04-08T08:43:36.636Z,34.80
2018-04-08T08:46:04.852Z,30.90
2018-04-08T08:48:32.692Z,33.37
2018-04-08T08:51:01.211Z,33.03
2018-04-08T08:53:29.194Z,33.90
2018-04-08T08:55:57.171Z,35.07
2018-04-08T09:00:57.052Z,33.57
2018-04-08T09:03:25.032Z,30.00
2018-04-08T09:05:52.931Z,30.43
2018-04-08T09:08:20.891Z,32.43
2018-04-08T09:10:48.872Z,27.53
2018-04-08T09:13:17.531Z,28.43
2018-04-08T09:15:45.910Z,28.63
2018-04-08T09:18:13.858Z,31.03
2018-04-08T09:20:57.251Z,29.17
2018-04-08T09:26:28.439Z,27.93
2018-04-08T09:28:56.471Z,30.37
2018-04-08T09:31:24.453Z,31.80
2018-04-08T09:33:52.530Z,30.33
2018-04-08T09:36:20.512Z,28.80
2018-04-08T09:38:48.389Z,28.83
2018-04-08T09:41:16.408Z,30.63
2018-04-08T09:43:44.929Z,30.93
2018-04-08T09:46:12.831Z,27.73
2018-04-08T09:48:40.831Z,27.70
2018-04-08T09:51:08.770Z,28.23
2018-04-08T09:53:37.973Z,26.97
2018-04-08T09:56:07.207Z,28.30
2018-04-08T09:58:36.448Z,28.10
2018-04-08T10:04:04.669Z,26.50
2018-04-08T10:06:33.248Z,24.43
2018-04-08T10:09:01.209Z,27.13
2018-04-08T10:11:29.139Z,31.77
2018-04-08T10:13:57.068Z,27.23
2018-04-08T10:16:24.927Z,28.77
2018-04-08T10:18:53.048Z,27.83
2018-04-08T10:21:21.368Z,27.33
2018-04-08T10:23:49.287Z,27.07
2018-04-08T10:26:18.168Z,27.10
2018-04-08T10:28:46.249Z,28.13
2018-04-08T10:31:14.525Z,28.73
2018-04-08T10:33:42.786Z,26.70
2018-04-08T10:36:11.388Z,24.73
2018-04-08T10:38:39.766Z,29.47
2018-04-08T10:41:07.806Z,28.90
2018-04-08T10:43:35.946Z,30.47
2018-04-08T10:46:05.116Z,27.10
2018-04-08T10:48:33.047Z,28.63
2018-04-08T10:51:01.106Z,28.40
2018-04-08T10:53:29.447Z,24.23
2018-04-08T10:55:58.166Z,26.63
2018-04-08T10:58:26.146Z,24.93
2018-04-08T11:00:54.095Z,26.40
2018-04-08T11:03:21.888Z,23.43
2018-04-08T11:05:50.049Z,21.43
2018-04-08T11:08:18.371Z,24.10
2018-04-08T11:10:46.468Z,24.87
2018-04-08T11:13:14.448Z,24.73
2018-04-08T11:15:42.248Z,23.40
2018-04-08T11:18:10.529Z,24.20
2018-04-08T11:20:38.449Z,26.70
2018-04-08T11:23:07.151Z,25.30
2018-04-08T11:25:35.849Z,25.00
2018-04-08T11:28:04.570Z,23.80
2018-04-08T11:30:32.289Z,25.37
2018-04-08T11:33:00.329Z,23.00
2018-04-08T11:35:29.566Z,26.33
2018-04-08T11:37:57.414Z,24.67
2018-04-08T11:40:25.445Z,24.73
2018-04-08T11:42:54.955Z,25.80
2018-04-08T11:45:22.848Z,26.03
2018-04-08T11:47:50.726Z,25.30
2018-04-08T11:50:19.508Z,22.63
2018-04-08T11:52:47.326Z,23.10
2018-04-08T11:55:15.207Z,24.27
2018-04-08T11:57:43.111Z,23.33
2018-04-08T12:00:11.584Z,21.30
2018-04-08T12:02:39.774Z,22.77
2018-04-08T12:05:07.934Z,21.07
2018-04-08T12:07:36.313Z,21.87
2018-04-08T12:10:04.194Z,21.40
2018-04-08T12:12:33.452Z,23.23
2018-04-08T12:15:01.334Z,23.70
2018-04-08T12:17:29.582Z,23.63
2018-04-08T12:19:58.283Z,21.47
2018-04-08T12:22:26.333Z,20.13
2018-04-08T12:24:55.094Z,19.70
2018-04-08T12:27:23.151Z,19.40
2018-04-08T12:29:51.051Z,18.53
2018-04-08T12:32:18.952Z,18.17
2018-04-08T12:34:46.973Z,19.27
2018-04-08T12:37:14.940Z,21.13
2018-04-08T12:39:43.591Z,20.43
2018-04-08T12:42:11.688Z,20.37
2018-04-08T12:44:40.311Z,19.73
2018-04-08T12:47:08.192Z,20.60
2018-04-08T12:49:36.292Z,18.67
2018-04-08T12:52:04.490Z,20.33
2018-04-08T12:54:32.390Z,21.33
2018-04-08T12:57:00.450Z,18.37
2018-04-08T12:59:28.189Z,16.53
2018-04-08T13:01:55.988Z,17.03
2018-04-08T13:04:23.826Z,13.63
2018-04-08T13:06:51.645Z,14.83
2018-04-08T13:09:19.405Z,15.10
2018-04-08T13:11:47.347Z,14.43
2018-04-08T13:14:15.172Z,14.70
2018-04-08T13:16:42.971Z,13.27
2018-04-08T13:19:10.872Z,14.67
2018-04-08T13:21:38.622Z,14.10
2018-04-08T13:24:06.491Z,13.83
2018-04-08T13:26:34.291Z,13.30
2018-04-08T13:29:02.034Z,14.67
2018-04-08T13:31:29.792Z,13.47
2018-04-08T13:33:57.611Z,13.17
2018-04-08T13:36:25.412Z,11.53
2018-04-08T13:38:53.172Z,11.33
2018-04-08T13:41:21.011Z,10.47
2018-04-08T13:43:50.091Z,11.13
2018-04-08T13:46:18.023Z,10.30
2018-04-08T13:48:45.971Z,11.23
2018-04-08T13:51:13.704Z,10.37
2018-04-08T13:53:41.508Z,10.30
2018-04-08T13:56:09.309Z,9.30
2018-04-08T13:58:37.027Z,9.63
2018-04-08T14:01:05.609Z,8.70
2018-04-08T14:03:33.387Z,8.53
2018-04-08T14:06:01.187Z,8.23
2018-04-08T14:08:29.070Z,8.93
2018-04-08T14:10:56.808Z,8.60
2018-04-08T14:13:24.647Z,8.10
2018-04-08T14:15:52.426Z,7.83
2018-04-08T14:18:20.146Z,7.00
2018-04-08T14:20:47.926Z,6.50
2018-04-08T14:23:15.786Z,7.10
2018-04-08T14:25:43.657Z,7.07
2018-04-08T14:28:11.410Z,7.00
2018-04-08T14:30:39.326Z,6.90
2018-04-08T14:33:07.127Z,7.87
2018-04-08T14:35:35.024Z,7.20
2018-04-08T14:38:02.913Z,6.90
2018-04-08T14:40:34.669Z,7.77
2018-04-08T14:43:02.494Z,6.37
2018-04-08T14:45:30.287Z,7.10
2018-04-08T14:47:58.106Z,7.50
2018-04-08T14:50:25.927Z,6.47
2018-04-08T14:52:53.706Z,6.63
2018-04-08T14:55:21.487Z,5.70
2018-04-08T14:57:49.366Z,5.77
2018-04-08T15:00:17.058Z,6.03
2018-04-08T15:02:44.834Z,6.00
2018-04-08T15:05:12.707Z,5.53
2018-04-08T15:07:40.708Z,5.57
2018-04-08T15:10:08.475Z,6.00
2018-04-08T15:12:36.224Z,5.80
2018-04-08T15:15:04.031Z,5.77
2018-04-08T15:17:32.548Z,5.60
2018-04-08T15:20:01.095Z,5.27
2018-04-08T15:22:29.687Z,5.50
2018-04-08T15:24:57.426Z,7.50
2018-04-08T15:27:25.926Z,5.57
2018-04-08T15:29:53.675Z,6.23
2018-04-08T15:32:21.467Z,5.37
2018-04-08T15:34:49.247Z,6.23
2018-04-08T15:37:17.005Z,5.03
2018-04-08T15:39:44.766Z,7.20
2018-04-08T15:42:12.567Z,4.87
2018-04-08T15:44:40.286Z,4.83
2018-04-08T15:47:08.068Z,5.30
2018-04-08T15:49:35.854Z,5.70
2018-04-08T15:52:03.730Z,5.40
2018-04-08T15:54:31.527Z,5.40
2018-04-08T15:56:59.391Z,6.80
2018-04-08T15:59:27.196Z,5.10
2018-04-08T16:01:55.072Z,8.27
2018-04-08T16:04:22.855Z,6.60
2018-04-08T16:06:50.606Z,5.93
2018-04-08T16:09:18.374Z,4.90
2018-04-08T16:11:46.287Z,5.50
2018-04-08T16:14:14.067Z,5.73
2018-04-08T16:16:41.867Z,6.50
2018-04-08T16:19:09.628Z,4.83
2018-04-08T16:21:37.459Z,5.83
2018-04-08T16:24:05.246Z,6.20
2018-04-08T16:26:33.091Z,6.03
2018-04-08T16:29:00.868Z,7.67
2018-04-08T16:31:28.626Z,5.97
2018-04-08T16:33:56.506Z,6.93
2018-04-08T16:36:24.263Z,5.93
2018-04-08T16:38:53.368Z,5.70
2018-04-08T16:41:21.301Z,5.20
2018-04-08T16:43:49.084Z,5.10
2018-04-08T16:46:16.935Z,5.43
2018-04-08T16:48:44.646Z,5.30
2018-04-08T16:51:12.376Z,5.43
2018-04-08T16:53:40.376Z,5.50
2018-04-08T16:56:08.187Z,5.27
2018-04-08T16:58:36.770Z,5.10
2018-04-08T17:01:04.519Z,5.77
2018-04-08T17:03:32.170Z,7.43
2018-04-08T17:05:59.967Z,5.17
2018-04-08T17:08:27.743Z,5.30
2018-04-08T17:10:56.290Z,4.90
2018-04-08T17:13:25.560Z,5.47
2018-04-08T17:15:53.321Z,4.80
2018-04-08T17:18:20.998Z,4.47
2018-04-08T17:20:48.694Z,4.23
2018-04-08T17:23:16.478Z,4.57
2018-04-08T17:25:44.367Z,5.13
2018-04-08T17:28:12.347Z,4.37
2018-04-08T17:30:40.286Z,5.40
2018-04-08T17:33:08.368Z,3.87
2018-04-08T17:35:36.886Z,4.73
2018-04-08T17:38:04.868Z,4.97
2018-04-08T17:40:32.728Z,3.87
2018-04-08T17:43:00.689Z,5.37
2018-04-08T17:45:28.930Z,3.67
2018-04-08T17:47:57.227Z,5.73
2018-04-08T17:50:25.031Z,4.47
2018-04-08T17:52:53.669Z,5.23
2018-04-08T17:55:21.689Z,4.30
2018-04-08T17:57:49.735Z,3.67
2018-04-08T18:00:20.163Z,5.80
2018-04-08T18:02:48.012Z,3.80
2018-04-08T18:05:15.872Z,3.10
2018-04-08T18:07:43.955Z,3.33
2018-04-08T18:10:11.833Z,3.23
2018-04-08T18:12:39.930Z,5.87
2018-04-08T18:15:07.810Z,3.87
2018-04-08T18:17:38.462Z,3.30
2018-04-08T18:20:06.532Z,3.47
2018-04-08T18:22:34.809Z,3.40
2018-04-08T18:25:09.568Z,4.73
2018-04-08T18:27:44.425Z,3.77
2018-04-08T18:30:15.923Z,3.37
2018-04-08T18:32:45.728Z,4.70
2018-04-08T18:35:13.960Z,3.93
2018-04-08T18:37:43.870Z,5.80
2018-04-08T18:40:12.010Z,4.10
2018-04-08T18:42:40.065Z,3.70
2018-04-08T18:45:07.936Z,3.40
2018-04-08T18:47:35.818Z,5.27
2018-04-08T18:50:05.030Z,3.37
2018-04-08T18:52:33.570Z,3.00
2018-04-08T18:55:03.052Z,2.90
2018-04-08T18:57:30.977Z,3.07
2018-04-08T18:59:59.710Z,3.17
2018-04-08T19:02:27.589Z,3.77
2018-04-08T19:04:56.945Z,4.33
2018-04-08T19:07:25.284Z,4.23
2018-04-08T19:09:53.908Z,3.60
2018-04-08T19:12:27.170Z,3.60
2018-04-08T19:15:10.507Z,5.30
2018-04-08T19:17:44.991Z,3.33
2018-04-08T19:20:13.392Z,3.30
2018-04-08T19:22:41.612Z,4.13
2018-04-08T19:25:11.001Z,4.57
2018-04-08T19:27:52.373Z,4.47
2018-04-08T19:30:22.591Z,4.73
2018-04-08T19:32:50.631Z,5.00
2018-04-08T19:35:21.108Z,5.60
2018-04-08T19:38:00.139Z,4.27
2018-04-08T19:40:29.379Z,4.37
2018-04-08T19:42:57.227Z,4.07
2018-04-08T19:45:24.979Z,3.50
2018-04-08T19:47:53.023Z,4.60
2018-04-08T19:50:20.891Z,4.67
2018-04-08T19:52:48.895Z,4.07
2018-04-08T19:55:16.743Z,4.70
2018-04-08T19:57:44.668Z,7.87
2018-04-08T20:00:12.433Z,3.43
2018-04-08T20:02:40.228Z,3.87
2018-04-08T20:05:08.209Z,6.07
2018-04-08T20:07:36.269Z,5.03
2018-04-08T20:10:04.155Z,3.80
2018-04-08T20:12:32.088Z,4.43
2018-04-08T20:15:00.178Z,4.50
2018-04-08T20:17:28.993Z,4.20
2018-04-08T20:19:56.890Z,4.33
2018-04-08T20:22:24.929Z,3.80
2018-04-08T20:24:53.711Z,4.60
2018-04-08T20:27:21.651Z,4.10
2018-04-08T20:29:49.637Z,3.70
2018-04-08T20:32:17.829Z,3.83
2018-04-08T20:34:47.438Z,4.03
2018-04-08T20:37:18.034Z,3.93
2018-04-08T20:39:45.969Z,3.67
2018-04-08T20:42:14.690Z,4.07
2018-04-08T20:44:42.853Z,5.63
2018-04-08T20:47:10.912Z,4.93
2018-04-08T20:49:39.212Z,4.73
2018-04-08T20:52:07.091Z,4.20
2018-04-08T20:54:35.168Z,3.93
2018-04-08T20:57:03.508Z,3.93
2018-04-08T20:59:31.827Z,3.97
2018-04-08T21:02:00.608Z,4.50
2018-04-08T21:04:28.506Z,4.70
2018-04-08T21:06:56.388Z,5.93
2018-04-08T21:09:24.629Z,6.07
2018-04-08T21:11:52.486Z,4.57
2018-04-08T21:14:20.388Z,3.43
2018-04-08T21:16:48.267Z,4.13
2018-04-08T21:19:16.166Z,4.23
2018-04-08T21:21:44.097Z,5.90
2018-04-08T21:24:12.151Z,4.77
2018-04-08T21:26:39.982Z,5.97
2018-04-08T21:29:08.230Z,4.93
2018-04-08T21:31:36.867Z,5.10
2018-04-08T21:34:05.088Z,4.53
2018-04-08T21:36:32.966Z,5.67
2018-04-08T21:39:00.826Z,4.70
2018-04-08T21:41:28.786Z,3.77
2018-04-08T21:43:57.230Z,3.70
2018-04-08T21:46:25.251Z,4.10
2018-04-08T21:48:53.215Z,4.13
2018-04-08T21:51:21.229Z,4.13
2018-04-08T21:53:49.352Z,3.93
2018-04-08T21:56:17.987Z,5.50
2018-04-08T21:58:45.848Z,4.23
2018-04-08T22:01:15.693Z,5.17
2018-04-08T22:03:44.017Z,4.27
2018-04-08T22:06:12.034Z,4.10
2018-04-08T22:08:40.896Z,4.63
2018-04-08T22:11:09.532Z,4.83
2018-04-08T22:13:37.473Z,4.00
2018-04-08T22:16:06.173Z,5.03
2018-04-08T22:18:33.973Z,7.03
2018-04-08T22:21:01.975Z,4.03
2018-04-08T22:23:29.893Z,5.17
2018-04-08T22:25:57.837Z,5.77
2018-04-08T22:28:25.640Z,4.43
2018-04-08T22:30:53.729Z,5.83
2018-04-08T22:33:23.109Z,4.77
2018-04-08T22:35:50.949Z,4.30
2018-04-08T22:38:18.849Z,6.07
2018-04-08T22:40:46.769Z,4.33
2018-04-08T22:43:14.708Z,5.23
2018-04-08T22:45:42.549Z,7.20
2018-04-08T22:48:10.449Z,7.73
2018-04-08T22:50:38.830Z,4.87
2018-04-08T22:53:07.429Z,4.47
2018-04-08T22:55:35.329Z,4.57
2018-04-08T22:58:03.249Z,5.07
2018-04-08T23:00:31.058Z,4.63
2018-04-08T23:02:58.928Z,6.93
2018-04-08T23:05:26.808Z,5.00
2018-04-08T23:07:54.587Z,6.03
2018-04-08T23:10:22.548Z,5.60
2018-04-08T23:12:51.529Z,5.00
2018-04-08T23:15:19.651Z,4.83
2018-04-08T23:17:47.498Z,3.97
2018-04-08T23:20:15.413Z,5.20
2018-04-08T23:22:43.304Z,4.27
2018-04-08T23:25:11.255Z,5.17
2018-04-08T23:27:39.149Z,4.53
2018-04-08T23:30:07.069Z,5.73
2018-04-08T23:32:35.507Z,4.03
2018-04-08T23:35:03.289Z,4.50
2018-04-08T23:37:31.547Z,5.63
2018-04-08T23:39:59.368Z,4.83
2018-04-08T23:42:27.367Z,5.30
2018-04-08T23:44:55.208Z,5.47
2018-04-08T23:47:24.327Z,5.07
2018-04-08T23:49:52.335Z,3.80
2018-04-08T23:52:20.247Z,4.20
2018-04-08T23:54:48.087Z,4.23
2018-04-08T23:57:16.227Z,4.90
2018-04-08T23:59:44.048Z,5.77
